sensor_id;sensor_type;location;lat;lon;timestamp;pressure;altitude;pressure_sealevel;temperature;humidity
64189;BME280;50493;50.970;10.082;2022-10-16T00:01:04;98913.06;;;15.23;62.92
64189;BME280;50493;50.970;10.082;2022-10-16T00:03:30;98905.47;;;15.16;63.01
64189;BME280;50493;50.970;10.082;2022-10-16T00:05:58;98901.59;;;15.24;62.79
64189;BME280;50493;50.970;10.082;2022-10-16T00:08:24;98904.09;;;15.27;62.57
64189;BME280;50493;50.970;10.082;2022-10-16T00:10:49;98912.91;;;15.26;62.57
64189;BME280;50493;50.970;10.082;2022-10-16T00:13:16;98906.13;;;15.39;61.95
64189;BME280;50493;50.970;10.082;2022-10-16T00:15:43;98910.88;;;15.50;61.72
64189;BME280;50493;50.970;10.082;2022-10-16T00:18:09;98917.13;;;15.47;61.53
64189;BME280;50493;50.970;10.082;2022-10-16T00:20:35;98923.97;;;15.51;61.54
64189;BME280;50493;50.970;10.082;2022-10-16T00:23:02;98921.41;;;15.67;63.64
64189;BME280;50493;50.970;10.082;2022-10-16T00:25:28;98918.56;;;15.90;61.35
64189;BME280;50493;50.970;10.082;2022-10-16T00:27:54;98918.56;;;15.90;60.25
64189;BME280;50493;50.970;10.082;2022-10-16T00:30:21;98923.97;;;15.87;60.75
64189;BME280;50493;50.970;10.082;2022-10-16T00:32:46;98928.34;;;16.05;61.14
64189;BME280;50493;50.970;10.082;2022-10-16T00:35:11;98929.19;;;16.06;60.94
64189;BME280;50493;50.970;10.082;2022-10-16T00:37:37;98922.56;;;15.79;60.43
64189;BME280;50493;50.970;10.082;2022-10-16T00:40:03;98922.88;;;15.73;60.30
64189;BME280;50493;50.970;10.082;2022-10-16T00:42:28;98927.09;;;15.95;61.00
64189;BME280;50493;50.970;10.082;2022-10-16T00:44:56;98930.91;;;16.07;59.45
64189;BME280;50493;50.970;10.082;2022-10-16T00:47:26;98920.19;;;16.10;61.34
64189;BME280;50493;50.970;10.082;2022-10-16T00:49:58;98910.88;;;15.85;59.94
64189;BME280;50493;50.970;10.082;2022-10-16T00:52:24;98917.00;;;15.68;60.12
64189;BME280;50493;50.970;10.082;2022-10-16T00:54:50;98924.13;;;15.66;60.28
64189;BME280;50493;50.970;10.082;2022-10-16T00:57:17;98923.06;;;15.70;60.13
64189;BME280;50493;50.970;10.082;2022-10-16T00:59:43;98933.25;;;15.76;59.67
64189;BME280;50493;50.970;10.082;2022-10-16T01:02:11;98934.06;;;15.78;59.61
64189;BME280;50493;50.970;10.082;2022-10-16T01:04:40;98938.16;;;15.84;59.62
64189;BME280;50493;50.970;10.082;2022-10-16T01:07:12;98925.13;;;15.81;59.78
64189;BME280;50493;50.970;10.082;2022-10-16T01:09:47;98922.00;;;15.92;65.78
64189;BME280;50493;50.970;10.082;2022-10-16T01:12:20;98914.28;;;15.87;60.13
64189;BME280;50493;50.970;10.082;2022-10-16T01:14:53;98928.78;;;15.61;60.48
64189;BME280;50493;50.970;10.082;2022-10-16T01:17:23;98930.94;;;15.52;67.09
64189;BME280;50493;50.970;10.082;2022-10-16T01:20:04;98940.59;;;15.15;61.93
64189;BME280;50493;50.970;10.082;2022-10-16T01:22:38;98933.69;;;15.49;61.31
64189;BME280;50493;50.970;10.082;2022-10-16T01:25:08;98938.16;;;15.66;62.13
64189;BME280;50493;50.970;10.082;2022-10-16T01:27:39;98947.34;;;15.75;60.32
64189;BME280;50493;50.970;10.082;2022-10-16T01:30:10;98955.59;;;15.69;59.81
64189;BME280;50493;50.970;10.082;2022-10-16T01:32:40;98945.25;;;15.64;61.03
64189;BME280;50493;50.970;10.082;2022-10-16T01:35:11;98951.72;;;15.76;60.83
64189;BME280;50493;50.970;10.082;2022-10-16T01:37:42;98957.84;;;15.59;60.35
64189;BME280;50493;50.970;10.082;2022-10-16T01:40:13;98962.13;;;15.43;61.55
64189;BME280;50493;50.970;10.082;2022-10-16T01:42:43;98961.31;;;15.77;61.75
64189;BME280;50493;50.970;10.082;2022-10-16T01:45:13;98966.47;;;15.98;63.12
64189;BME280;50493;50.970;10.082;2022-10-16T01:47:40;98971.22;;;15.55;60.74
64189;BME280;50493;50.970;10.082;2022-10-16T01:50:08;98962.31;;;15.75;60.83
64189;BME280;50493;50.970;10.082;2022-10-16T01:52:36;98955.72;;;15.48;60.96
64189;BME280;50493;50.970;10.082;2022-10-16T01:55:04;98967.28;;;15.63;61.63
64189;BME280;50493;50.970;10.082;2022-10-16T01:57:32;98968.59;;;15.72;60.81
64189;BME280;50493;50.970;10.082;2022-10-16T02:00:05;98956.97;;;15.59;66.51
64189;BME280;50493;50.970;10.082;2022-10-16T02:02:32;98974.88;;;15.69;60.88
64189;BME280;50493;50.970;10.082;2022-10-16T02:05:02;98961.88;;;15.84;60.49
64189;BME280;50493;50.970;10.082;2022-10-16T02:07:30;98968.03;;;16.02;64.58
64189;BME280;50493;50.970;10.082;2022-10-16T02:09:55;98976.56;;;15.90;59.89
64189;BME280;50493;50.970;10.082;2022-10-16T02:12:25;98976.69;;;15.87;59.18
64189;BME280;50493;50.970;10.082;2022-10-16T02:14:51;98979.44;;;16.02;63.08
64189;BME280;50493;50.970;10.082;2022-10-16T02:17:20;98981.03;;;15.88;60.46
64189;BME280;50493;50.970;10.082;2022-10-16T02:19:47;98988.16;;;15.85;60.51
64189;BME280;50493;50.970;10.082;2022-10-16T02:22:17;98995.72;;;15.57;59.84
64189;BME280;50493;50.970;10.082;2022-10-16T02:24:52;98995.28;;;15.66;64.16
64189;BME280;50493;50.970;10.082;2022-10-16T02:27:23;98978.53;;;15.84;65.53
64189;BME280;50493;50.970;10.082;2022-10-16T02:29:53;98975.00;;;16.03;62.87
64189;BME280;50493;50.970;10.082;2022-10-16T02:32:29;98969.06;;;15.80;63.85
64189;BME280;50493;50.970;10.082;2022-10-16T02:34:56;98970.78;;;15.81;62.12
64189;BME280;50493;50.970;10.082;2022-10-16T02:37:23;98967.91;;;15.51;61.73
64189;BME280;50493;50.970;10.082;2022-10-16T02:39:50;98973.53;;;15.43;63.59
64189;BME280;50493;50.970;10.082;2022-10-16T02:42:17;98978.38;;;15.70;64.65
64189;BME280;50493;50.970;10.082;2022-10-16T02:44:43;98973.69;;;15.58;65.98
64189;BME280;50493;50.970;10.082;2022-10-16T02:47:08;98972.44;;;15.11;67.96
64189;BME280;50493;50.970;10.082;2022-10-16T02:49:35;98969.56;;;15.15;67.09
64189;BME280;50493;50.970;10.082;2022-10-16T02:52:00;98967.03;;;14.95;68.30
64189;BME280;50493;50.970;10.082;2022-10-16T02:54:25;98960.91;;;15.13;63.95
64189;BME280;50493;50.970;10.082;2022-10-16T02:56:51;98959.34;;;15.09;67.17
64189;BME280;50493;50.970;10.082;2022-10-16T02:59:17;98962.16;;;15.24;65.63
64189;BME280;50493;50.970;10.082;2022-10-16T03:01:42;98963.59;;;15.31;62.71
64189;BME280;50493;50.970;10.082;2022-10-16T03:04:08;98967.91;;;15.32;65.44
64189;BME280;50493;50.970;10.082;2022-10-16T03:06:35;98968.91;;;15.48;63.80
64189;BME280;50493;50.970;10.082;2022-10-16T03:09:00;98973.69;;;15.40;60.87
64189;BME280;50493;50.970;10.082;2022-10-16T03:11:26;98982.28;;;15.44;61.49
64189;BME280;50493;50.970;10.082;2022-10-16T03:13:52;98986.63;;;15.45;62.27
64189;BME280;50493;50.970;10.082;2022-10-16T03:16:17;99003.63;;;15.57;65.34
64189;BME280;50493;50.970;10.082;2022-10-16T03:18:42;98988.38;;;15.27;62.85
64189;BME280;50493;50.970;10.082;2022-10-16T03:21:08;98987.50;;;15.07;61.23
64189;BME280;50493;50.970;10.082;2022-10-16T03:23:35;98993.56;;;14.89;62.58
64189;BME280;50493;50.970;10.082;2022-10-16T03:26:00;98981.97;;;15.13;62.05
64189;BME280;50493;50.970;10.082;2022-10-16T03:28:26;98986.75;;;15.05;62.78
64189;BME280;50493;50.970;10.082;2022-10-16T03:30:51;98986.91;;;14.81;61.91
64189;BME280;50493;50.970;10.082;2022-10-16T03:33:17;98975.28;;;15.25;64.07
64189;BME280;50493;50.970;10.082;2022-10-16T03:35:42;98982.38;;;15.23;61.22
64189;BME280;50493;50.970;10.082;2022-10-16T03:38:07;98992.41;;;14.96;60.71
64189;BME280;50493;50.970;10.082;2022-10-16T03:40:34;98992.63;;;15.10;61.14
64189;BME280;50493;50.970;10.082;2022-10-16T03:43:00;98993.75;;;15.24;64.12
64189;BME280;50493;50.970;10.082;2022-10-16T03:45:25;98985.03;;;15.04;66.09
64189;BME280;50493;50.970;10.082;2022-10-16T03:47:52;98994.97;;;14.58;62.05
64189;BME280;50493;50.970;10.082;2022-10-16T03:50:17;99000.28;;;14.56;62.09
64189;BME280;50493;50.970;10.082;2022-10-16T03:52:42;99006.16;;;14.42;62.71
64189;BME280;50493;50.970;10.082;2022-10-16T03:55:08;99019.59;;;14.36;62.57
64189;BME280;50493;50.970;10.082;2022-10-16T03:57:35;99016.38;;;14.29;62.95
64189;BME280;50493;50.970;10.082;2022-10-16T04:00:01;99022.47;;;14.71;61.91
64189;BME280;50493;50.970;10.082;2022-10-16T04:02:26;99027.06;;;15.25;65.77
64189;BME280;50493;50.970;10.082;2022-10-16T04:04:51;99014.19;;;15.18;65.41
64189;BME280;50493;50.970;10.082;2022-10-16T04:07:17;99029.28;;;14.75;60.87
64189;BME280;50493;50.970;10.082;2022-10-16T04:09:43;99013.31;;;14.99;60.60
64189;BME280;50493;50.970;10.082;2022-10-16T04:12:08;99026.03;;;14.89;60.35
64189;BME280;50493;50.970;10.082;2022-10-16T04:14:35;99026.34;;;15.21;59.96
64189;BME280;50493;50.970;10.082;2022-10-16T04:17:00;99031.06;;;15.33;59.18
64189;BME280;50493;50.970;10.082;2022-10-16T04:19:26;99043.28;;;15.34;59.29
64189;BME280;50493;50.970;10.082;2022-10-16T04:21:51;99038.16;;;15.12;59.12
64189;BME280;50493;50.970;10.082;2022-10-16T04:24:17;99040.72;;;15.14;58.99
64189;BME280;50493;50.970;10.082;2022-10-16T04:26:42;99052.34;;;14.89;60.10
64189;BME280;50493;50.970;10.082;2022-10-16T04:29:08;99055.03;;;14.88;60.05
64189;BME280;50493;50.970;10.082;2022-10-16T04:31:34;99063.63;;;14.93;59.89
64189;BME280;50493;50.970;10.082;2022-10-16T04:34:00;99055.09;;;15.07;59.36
64189;BME280;50493;50.970;10.082;2022-10-16T04:36:25;99058.00;;;15.20;60.54
64189;BME280;50493;50.970;10.082;2022-10-16T04:38:50;99052.63;;;15.23;58.64
64189;BME280;50493;50.970;10.082;2022-10-16T04:41:16;99068.19;;;15.27;58.43
64189;BME280;50493;50.970;10.082;2022-10-16T04:43:41;99068.63;;;15.37;60.51
64189;BME280;50493;50.970;10.082;2022-10-16T04:46:07;99062.34;;;15.21;59.03
64189;BME280;50493;50.970;10.082;2022-10-16T04:48:33;99083.13;;;14.87;59.64
64189;BME280;50493;50.970;10.082;2022-10-16T04:50:59;99088.22;;;14.92;59.60
64189;BME280;50493;50.970;10.082;2022-10-16T04:53:24;99090.56;;;14.98;60.06
64189;BME280;50493;50.970;10.082;2022-10-16T04:55:50;99081.28;;;14.89;60.82
64189;BME280;50493;50.970;10.082;2022-10-16T04:58:16;99080.19;;;14.95;59.47
64189;BME280;50493;50.970;10.082;2022-10-16T05:00:41;99078.50;;;15.13;60.20
64189;BME280;50493;50.970;10.082;2022-10-16T05:03:07;99084.84;;;15.28;58.67
64189;BME280;50493;50.970;10.082;2022-10-16T05:05:35;99087.53;;;15.07;58.92
64189;BME280;50493;50.970;10.082;2022-10-16T05:08:01;99073.88;;;14.99;70.48
64189;BME280;50493;50.970;10.082;2022-10-16T05:10:27;99052.47;;;13.81;74.88
64189;BME280;50493;50.970;10.082;2022-10-16T05:12:53;99045.84;;;14.15;67.74
64189;BME280;50493;50.970;10.082;2022-10-16T05:15:18;99027.97;;;14.24;71.33
64189;BME280;50493;50.970;10.082;2022-10-16T05:17:44;99018.19;;;14.27;67.51
64189;BME280;50493;50.970;10.082;2022-10-16T05:20:09;99022.63;;;14.27;64.06
64189;BME280;50493;50.970;10.082;2022-10-16T05:22:36;99019.84;;;14.30;62.40
64189;BME280;50493;50.970;10.082;2022-10-16T05:25:01;99038.38;;;14.06;62.90
64189;BME280;50493;50.970;10.082;2022-10-16T05:27:27;99047.22;;;13.59;64.57
64189;BME280;50493;50.970;10.082;2022-10-16T05:29:52;99059.31;;;13.41;65.53
64189;BME280;50493;50.970;10.082;2022-10-16T05:32:18;99062.50;;;13.72;64.50
64189;BME280;50493;50.970;10.082;2022-10-16T05:34:44;99058.06;;;13.96;63.43
64189;BME280;50493;50.970;10.082;2022-10-16T05:37:10;99057.25;;;14.57;62.74
64189;BME280;50493;50.970;10.082;2022-10-16T05:39:38;99065.09;;;14.78;61.65
64189;BME280;50493;50.970;10.082;2022-10-16T05:42:04;99071.63;;;14.69;60.83
64189;BME280;50493;50.970;10.082;2022-10-16T05:44:29;99070.75;;;15.10;68.20
64189;BME280;50493;50.970;10.082;2022-10-16T05:46:55;99062.50;;;15.17;68.70
64189;BME280;50493;50.970;10.082;2022-10-16T05:49:20;99064.81;;;15.05;64.43
64189;BME280;50493;50.970;10.082;2022-10-16T05:51:46;99061.28;;;14.85;61.15
64189;BME280;50493;50.970;10.082;2022-10-16T05:54:11;99071.31;;;14.97;60.25
64189;BME280;50493;50.970;10.082;2022-10-16T05:56:38;99079.13;;;14.78;60.09
64189;BME280;50493;50.970;10.082;2022-10-16T05:59:04;99067.25;;;14.89;64.20
64189;BME280;50493;50.970;10.082;2022-10-16T06:01:29;99080.13;;;14.55;60.75
64189;BME280;50493;50.970;10.082;2022-10-16T06:03:56;99079.25;;;14.55;61.75
64189;BME280;50493;50.970;10.082;2022-10-16T06:06:23;99077.28;;;14.60;60.51
64189;BME280;50493;50.970;10.082;2022-10-16T06:08:51;99083.53;;;14.57;60.92
64189;BME280;50493;50.970;10.082;2022-10-16T06:11:18;99080.84;;;14.59;64.99
64189;BME280;50493;50.970;10.082;2022-10-16T06:13:49;99089.72;;;14.36;61.47
64189;BME280;50493;50.970;10.082;2022-10-16T06:16:14;99088.34;;;14.68;66.96
64189;BME280;50493;50.970;10.082;2022-10-16T06:18:40;99093.28;;;14.76;60.88
64189;BME280;50493;50.970;10.082;2022-10-16T06:21:08;99104.41;;;14.62;60.44
64189;BME280;50493;50.970;10.082;2022-10-16T06:23:34;99114.91;;;14.82;60.27
64189;BME280;50493;50.970;10.082;2022-10-16T06:26:04;99112.59;;;15.16;66.27
64189;BME280;50493;50.970;10.082;2022-10-16T06:28:30;99103.91;;;15.33;62.29
64189;BME280;50493;50.970;10.082;2022-10-16T06:31:00;99111.06;;;15.50;63.02
64189;BME280;50493;50.970;10.082;2022-10-16T06:33:25;99105.94;;;15.47;60.35
64189;BME280;50493;50.970;10.082;2022-10-16T06:35:50;99104.38;;;15.62;67.10
64189;BME280;50493;50.970;10.082;2022-10-16T06:38:16;99105.41;;;15.77;61.21
64189;BME280;50493;50.970;10.082;2022-10-16T06:40:41;99103.97;;;15.69;66.91
64189;BME280;50493;50.970;10.082;2022-10-16T06:43:07;99123.44;;;15.67;67.28
64189;BME280;50493;50.970;10.082;2022-10-16T06:45:32;99115.44;;;15.68;65.56
64189;BME280;50493;50.970;10.082;2022-10-16T06:47:59;99114.91;;;15.62;64.63
64189;BME280;50493;50.970;10.082;2022-10-16T06:50:24;99111.03;;;15.69;66.10
64189;BME280;50493;50.970;10.082;2022-10-16T06:52:50;99121.28;;;15.75;61.71
64189;BME280;50493;50.970;10.082;2022-10-16T06:55:15;99125.06;;;15.89;65.10
64189;BME280;50493;50.970;10.082;2022-10-16T06:57:42;99140.78;;;15.71;57.62
64189;BME280;50493;50.970;10.082;2022-10-16T07:00:08;99153.78;;;15.76;62.93
64189;BME280;50493;50.970;10.082;2022-10-16T07:02:33;99151.78;;;15.81;57.58
64189;BME280;50493;50.970;10.082;2022-10-16T07:05:00;99143.50;;;15.69;61.04
64189;BME280;50493;50.970;10.082;2022-10-16T07:07:26;99158.50;;;15.88;56.54
64189;BME280;50493;50.970;10.082;2022-10-16T07:09:51;99161.03;;;16.09;65.32
64189;BME280;50493;50.970;10.082;2022-10-16T07:12:17;99164.81;;;16.03;64.37
64189;BME280;50493;50.970;10.082;2022-10-16T07:14:42;99174.13;;;15.72;59.04
64189;BME280;50493;50.970;10.082;2022-10-16T07:17:08;99175.25;;;15.47;59.75
64189;BME280;50493;50.970;10.082;2022-10-16T07:19:33;99182.06;;;15.32;65.75
64189;BME280;50493;50.970;10.082;2022-10-16T07:22:00;99185.97;;;15.82;65.13
64189;BME280;50493;50.970;10.082;2022-10-16T07:24:26;99172.13;;;16.15;66.10
64189;BME280;50493;50.970;10.082;2022-10-16T07:26:51;99180.94;;;16.33;64.45
64189;BME280;50493;50.970;10.082;2022-10-16T07:29:18;99189.28;;;16.61;65.20
64189;BME280;50493;50.970;10.082;2022-10-16T07:31:45;99196.72;;;16.52;65.16
64189;BME280;50493;50.970;10.082;2022-10-16T07:34:12;99202.13;;;16.49;63.66
64189;BME280;50493;50.970;10.082;2022-10-16T07:36:38;99206.34;;;16.53;64.97
64189;BME280;50493;50.970;10.082;2022-10-16T07:39:04;99217.59;;;16.21;64.73
64189;BME280;50493;50.970;10.082;2022-10-16T07:41:30;99215.72;;;16.23;63.05
64189;BME280;50493;50.970;10.082;2022-10-16T07:43:58;99224.72;;;16.38;65.26
64189;BME280;50493;50.970;10.082;2022-10-16T07:46:26;99228.25;;;16.56;64.21
64189;BME280;50493;50.970;10.082;2022-10-16T07:48:52;99226.38;;;16.58;64.37
64189;BME280;50493;50.970;10.082;2022-10-16T07:51:19;99215.88;;;16.19;65.33
64189;BME280;50493;50.970;10.082;2022-10-16T07:53:45;99228.53;;;16.49;64.11
64189;BME280;50493;50.970;10.082;2022-10-16T07:56:12;99229.19;;;16.72;63.49
64189;BME280;50493;50.970;10.082;2022-10-16T07:58:38;99229.47;;;16.85;62.32
64189;BME280;50493;50.970;10.082;2022-10-16T08:01:05;99229.69;;;16.98;63.01
64189;BME280;50493;50.970;10.082;2022-10-16T08:03:31;99239.97;;;17.04;62.77
64189;BME280;50493;50.970;10.082;2022-10-16T08:05:56;99231.25;;;17.02;62.36
64189;BME280;50493;50.970;10.082;2022-10-16T08:08:22;99239.31;;;16.81;62.32
64189;BME280;50493;50.970;10.082;2022-10-16T08:10:47;99241.59;;;17.07;62.12
64189;BME280;50493;50.970;10.082;2022-10-16T08:13:14;99246.63;;;16.94;62.43
64189;BME280;50493;50.970;10.082;2022-10-16T08:15:40;99247.78;;;17.06;61.90
64189;BME280;50493;50.970;10.082;2022-10-16T08:18:06;99246.31;;;17.17;61.93
64189;BME280;50493;50.970;10.082;2022-10-16T08:20:32;99244.91;;;17.10;62.33
64189;BME280;50493;50.970;10.082;2022-10-16T08:22:58;99248.72;;;17.22;61.81
64189;BME280;50493;50.970;10.082;2022-10-16T08:25:24;99246.81;;;17.42;61.49
64189;BME280;50493;50.970;10.082;2022-10-16T08:27:50;99251.53;;;17.52;61.97
64189;BME280;50493;50.970;10.082;2022-10-16T08:30:18;99250.69;;;17.52;61.24
64189;BME280;50493;50.970;10.082;2022-10-16T08:32:44;99253.88;;;17.59;59.85
64189;BME280;50493;50.970;10.082;2022-10-16T08:35:10;99262.31;;;17.65;60.76
64189;BME280;50493;50.970;10.082;2022-10-16T08:37:36;99262.88;;;17.72;61.64
64189;BME280;50493;50.970;10.082;2022-10-16T08:40:02;99275.00;;;17.76;60.73
64189;BME280;50493;50.970;10.082;2022-10-16T08:42:41;99274.38;;;17.71;62.55
64189;BME280;50493;50.970;10.082;2022-10-16T08:45:19;99272.41;;;17.24;63.23
64189;BME280;50493;50.970;10.082;2022-10-16T08:47:49;99273.38;;;17.56;62.09
64189;BME280;50493;50.970;10.082;2022-10-16T08:50:22;99283.78;;;17.77;61.20
64189;BME280;50493;50.970;10.082;2022-10-16T08:52:49;99284.53;;;17.28;57.73
64189;BME280;50493;50.970;10.082;2022-10-16T08:55:29;99288.09;;;17.27;61.58
64189;BME280;50493;50.970;10.082;2022-10-16T08:57:55;99289.84;;;17.79;61.15
64189;BME280;50493;50.970;10.082;2022-10-16T09:00:23;99292.75;;;17.90;59.33
64189;BME280;50493;50.970;10.082;2022-10-16T09:02:52;99301.28;;;17.79;61.72
64189;BME280;50493;50.970;10.082;2022-10-16T09:05:31;99304.72;;;17.46;63.42
64189;BME280;50493;50.970;10.082;2022-10-16T09:08:08;99302.22;;;17.61;63.90
64189;BME280;50493;50.970;10.082;2022-10-16T09:10:44;99289.97;;;17.42;63.71
64189;BME280;50493;50.970;10.082;2022-10-16T09:13:18;99301.16;;;17.47;62.73
64189;BME280;50493;50.970;10.082;2022-10-16T09:15:54;99303.28;;;17.74;63.20
64189;BME280;50493;50.970;10.082;2022-10-16T09:18:25;99301.66;;;17.89;63.09
64189;BME280;50493;50.970;10.082;2022-10-16T09:20:57;99311.34;;;17.89;61.86
64189;BME280;50493;50.970;10.082;2022-10-16T09:23:26;99324.59;;;18.38;61.87
64189;BME280;50493;50.970;10.082;2022-10-16T09:25:52;99327.72;;;18.29;61.35
64189;BME280;50493;50.970;10.082;2022-10-16T09:28:19;99323.03;;;18.50;61.52
64189;BME280;50493;50.970;10.082;2022-10-16T09:30:45;99318.63;;;18.66;59.80
64189;BME280;50493;50.970;10.082;2022-10-16T09:33:13;99313.44;;;19.11;60.00
64189;BME280;50493;50.970;10.082;2022-10-16T09:35:41;99309.84;;;19.12;58.52
64189;BME280;50493;50.970;10.082;2022-10-16T09:38:08;99319.78;;;18.13;61.57
64189;BME280;50493;50.970;10.082;2022-10-16T09:40:35;99314.69;;;18.58;58.07
64189;BME280;50493;50.970;10.082;2022-10-16T09:43:06;99323.94;;;18.66;51.36
64189;BME280;50493;50.970;10.082;2022-10-16T09:45:38;99322.91;;;17.70;52.61
64189;BME280;50493;50.970;10.082;2022-10-16T09:48:11;99324.09;;;17.98;62.10
64189;BME280;50493;50.970;10.082;2022-10-16T09:50:38;99326.91;;;18.60;52.22
64189;BME280;50493;50.970;10.082;2022-10-16T09:53:05;99327.59;;;18.80;50.71
64189;BME280;50493;50.970;10.082;2022-10-16T09:55:31;99334.78;;;19.54;55.08
64189;BME280;50493;50.970;10.082;2022-10-16T09:57:56;99325.31;;;20.08;56.03
64189;BME280;50493;50.970;10.082;2022-10-16T10:00:23;99325.72;;;20.02;53.25
64189;BME280;50493;50.970;10.082;2022-10-16T10:02:49;99339.44;;;19.94;54.39
64189;BME280;50493;50.970;10.082;2022-10-16T10:05:20;99340.69;;;19.88;53.92
64189;BME280;50493;50.970;10.082;2022-10-16T10:07:54;99342.94;;;19.66;54.18
64189;BME280;50493;50.970;10.082;2022-10-16T10:10:22;99333.28;;;20.08;52.88
64189;BME280;50493;50.970;10.082;2022-10-16T10:12:48;99349.53;;;18.98;55.85
64189;BME280;50493;50.970;10.082;2022-10-16T10:15:15;99354.53;;;18.39;57.18
64189;BME280;50493;50.970;10.082;2022-10-16T10:17:48;99353.28;;;18.78;57.39
64189;BME280;50493;50.970;10.082;2022-10-16T10:20:22;99354.91;;;18.96;56.12
64189;BME280;50493;50.970;10.082;2022-10-16T10:22:49;99349.38;;;19.62;52.67
64189;BME280;50493;50.970;10.082;2022-10-16T10:25:19;99356.28;;;18.06;57.35
64189;BME280;50493;50.970;10.082;2022-10-16T10:28:10;99354.78;;;19.14;54.23
64189;BME280;50493;50.970;10.082;2022-10-16T10:30:44;99362.66;;;18.51;55.08
64189;BME280;50493;50.970;10.082;2022-10-16T10:33:21;99363.91;;;19.08;52.88
64189;BME280;50493;50.970;10.082;2022-10-16T10:35:56;99358.75;;;21.10;49.67
64189;BME280;50493;50.970;10.082;2022-10-16T10:38:32;99352.31;;;20.85;49.98
64189;BME280;50493;50.970;10.082;2022-10-16T10:41:16;99349.19;;;22.12;44.98
64189;BME280;50493;50.970;10.082;2022-10-16T10:43:54;99354.22;;;21.91;44.80
64189;BME280;50493;50.970;10.082;2022-10-16T10:46:32;99363.50;;;21.45;46.01
64189;BME280;50493;50.970;10.082;2022-10-16T10:49:14;99366.38;;;20.87;48.45
64189;BME280;50493;50.970;10.082;2022-10-16T10:51:52;99372.84;;;20.98;47.97
64189;BME280;50493;50.970;10.082;2022-10-16T10:54:28;99370.63;;;19.76;50.38
64189;BME280;50493;50.970;10.082;2022-10-16T10:57:00;99372.97;;;19.66;51.69
64189;BME280;50493;50.970;10.082;2022-10-16T10:59:57;99368.53;;;19.96;48.66
64189;BME280;50493;50.970;10.082;2022-10-16T11:02:33;99368.91;;;21.03;49.00
64189;BME280;50493;50.970;10.082;2022-10-16T11:07:58;99373.03;;;20.95;48.87
64189;BME280;50493;50.970;10.082;2022-10-16T11:10:29;99367.50;;;20.56;49.78
64189;BME280;50493;50.970;10.082;2022-10-16T11:12:59;99367.84;;;21.46;47.65
64189;BME280;50493;50.970;10.082;2022-10-16T11:15:32;99361.91;;;22.59;43.13
64189;BME280;50493;50.970;10.082;2022-10-16T11:18:06;99353.53;;;22.76;43.67
64189;BME280;50493;50.970;10.082;2022-10-16T11:20:34;99351.66;;;23.38;41.95
64189;BME280;50493;50.970;10.082;2022-10-16T11:23:09;99359.56;;;22.67;44.90
64189;BME280;50493;50.970;10.082;2022-10-16T11:25:40;99355.16;;;21.64;47.48
64189;BME280;50493;50.970;10.082;2022-10-16T11:28:11;99361.22;;;20.99;49.30
64189;BME280;50493;50.970;10.082;2022-10-16T11:30:42;99355.66;;;20.04;52.52
64189;BME280;50493;50.970;10.082;2022-10-16T11:33:28;99351.75;;;22.01;46.88
64189;BME280;50493;50.970;10.082;2022-10-16T11:36:01;99349.13;;;22.88;44.73
64189;BME280;50493;50.970;10.082;2022-10-16T11:38:33;99348.69;;;22.57;45.35
64189;BME280;50493;50.970;10.082;2022-10-16T11:41:04;99346.81;;;23.32;41.34
64189;BME280;50493;50.970;10.082;2022-10-16T11:43:38;99348.31;;;23.59;38.90
64189;BME280;50493;50.970;10.082;2022-10-16T11:46:11;99352.94;;;23.68;42.46
64189;BME280;50493;50.970;10.082;2022-10-16T11:48:41;99341.38;;;23.09;42.71
64189;BME280;50493;50.970;10.082;2022-10-16T11:51:15;99355.56;;;23.45;40.15
64189;BME280;50493;50.970;10.082;2022-10-16T11:53:46;99352.31;;;24.00;36.99
64189;BME280;50493;50.970;10.082;2022-10-16T11:56:18;99355.06;;;23.40;39.14
64189;BME280;50493;50.970;10.082;2022-10-16T11:58:53;99342.81;;;23.73;38.47
64189;BME280;50493;50.970;10.082;2022-10-16T12:01:26;99348.44;;;23.57;41.88
64189;BME280;50493;50.970;10.082;2022-10-16T12:04:02;99342.69;;;23.28;44.17
64189;BME280;50493;50.970;10.082;2022-10-16T12:06:34;99341.66;;;23.17;41.36
64189;BME280;50493;50.970;10.082;2022-10-16T12:09:02;99348.03;;;23.39;45.16
64189;BME280;50493;50.970;10.082;2022-10-16T12:11:35;99341.25;;;23.46;45.14
64189;BME280;50493;50.970;10.082;2022-10-16T12:14:20;99348.56;;;22.34;44.78
64189;BME280;50493;50.970;10.082;2022-10-16T12:16:55;99351.41;;;21.14;52.45
64189;BME280;50493;50.970;10.082;2022-10-16T12:19:22;99355.56;;;20.91;53.57
64189;BME280;50493;50.970;10.082;2022-10-16T12:21:48;99339.81;;;21.94;48.74
64189;BME280;50493;50.970;10.082;2022-10-16T12:24:29;99352.44;;;22.54;41.33
64189;BME280;50493;50.970;10.082;2022-10-16T12:26:57;99354.50;;;22.38;48.82
64189;BME280;50493;50.970;10.082;2022-10-16T12:29:33;99352.63;;;21.63;48.28
64189;BME280;50493;50.970;10.082;2022-10-16T12:31:59;99358.59;;;21.39;52.35
64189;BME280;50493;50.970;10.082;2022-10-16T12:34:28;99354.09;;;22.05;48.94
64189;BME280;50493;50.970;10.082;2022-10-16T12:36:55;99360.41;;;21.51;50.57
64189;BME280;50493;50.970;10.082;2022-10-16T12:39:22;99357.94;;;20.95;54.31
64189;BME280;50493;50.970;10.082;2022-10-16T12:42:01;99356.00;;;21.25;51.57
64189;BME280;50493;50.970;10.082;2022-10-16T12:44:32;99350.94;;;21.47;52.50
64189;BME280;50493;50.970;10.082;2022-10-16T12:46:57;99347.44;;;21.60;52.38
64189;BME280;50493;50.970;10.082;2022-10-16T12:49:31;99357.06;;;21.88;50.97
64189;BME280;50493;50.970;10.082;2022-10-16T12:51:57;99356.22;;;22.39;48.52
64189;BME280;50493;50.970;10.082;2022-10-16T12:54:26;99352.19;;;21.82;51.25
64189;BME280;50493;50.970;10.082;2022-10-16T12:57:03;99355.28;;;22.14;45.33
64189;BME280;50493;50.970;10.082;2022-10-16T12:59:39;99362.16;;;22.30;49.64